Edzard Schulte — 2CVX9 — position and weather

sailwx.info

Track history (hours):
 
Tides and Currents Weather Stations Pressure Air Temp Water Temp Dewpoint Dewpoint Depression Visibility Wind Speed Wind Dir Waves Ship Positions

Edzard Schulte

Last reported at 2015-Jul-31 20:19 UTC. Time now 2015-Aug-03 10:40 UTC.
Position N 46°34' W 072°06'.

Length 145 m; draft 5.9 m.

Type: Tanker. MMSI: 235076245.

Date/timePositionNaut miles runAvg speedWind from/ knotsBaromVisibWave heightAir tempDewpointWater temp
2015-Jul-31 20:19N 46°34' W 072°06'1012.9
2015-Jul-31 19:33N 46°27' W 072°16'1313.1
2015-Jul-31 18:33N 46°20' W 072°32'1111.4
2015-Jul-31 17:33N 46°14' W 072°46'5412.3
2015-Jul-31 13:11N 45°30' W 073°31'1 0.9
2015-Jul-31 12:31N 45°30' W 073°31'5 5.2
2015-Jul-31 11:34N 45°25' W 073°32'3 3.1
2015-Jul-31 10:33N 45°24' W 073°36'8 8.1
2015-Jul-31 09:33N 45°24' W 073°48'7 7.2
2015-Jul-31 08:33N 45°19' W 073°55'1 1.2
2015-Jul-31 07:33N 45°18' W 073°56'7 6.2
2015-Jul-31 06:28N 45°13' W 074°03'117 9.5
2015-Jul-30 18:10N 44°08' W 076°20'0 0.1
2015-Jul-30 17:33N 44°08' W 076°20'9 8.9
2015-Jul-30 16:30N 44°01' W 076°28'10312.5
2015-Jul-30 08:16N 43°25' W 078°42'913.2
2015-Jul-30 07:33N 43°22' W 078°54'1313.0
2015-Jul-30 06:33N 43°20' W 079°12'1312.9
2015-Jul-30 05:33N 43°19' W 079°29'1311.6
2015-Jul-30 04:25N 43°18' W 079°47'12 0.3
2015-Jul-28 18:25N 43°24' W 079°34'1011.6
2015-Jul-28 17:33N 43°26' W 079°20'1211.7
2015-Jul-28 16:33N 43°27' W 079°04'12612.6
2015-Jul-28 06:32N 44°10' W 076°19'0 0.0
2015-Jul-28 05:33N 44°10' W 076°19'121 6.3
2015-Jul-27 10:25N 45°16' W 073°57'2 2.4
2015-Jul-27 09:33N 45°18' W 073°56'1 0.8
2015-Jul-27 08:33N 45°19' W 073°55'3 3.1
2015-Jul-27 07:33N 45°21' W 073°52'8 7.7
2015-Jul-27 06:33N 45°25' W 073°42'6 5.7
2015-Jul-27 05:33N 45°24' W 073°34'2 1.9
2015-Jul-27 04:33N 45°25' W 073°31'47 2.7
2015-Jul-26 11:16N 46°06' W 072°59'7 9.2
2015-Jul-26 10:30N 46°12' W 072°53'910.0
2015-Jul-26 09:33N 46°16' W 072°41'7 7.3
2015-Jul-26 08:33N 46°20' W 072°32'9 8.7
2015-Jul-26 07:33N 46°25' W 072°22'8 8.3
2015-Jul-26 06:32N 46°31' W 072°13'  
Track history (hours):
 
Tides and Currents Weather Stations Pressure Air Temp Water Temp Dewpoint Dewpoint Depression Visibility Wind Speed Wind Dir Waves Ship Positions

Edzard Schulte

Last reported at 2015-Jul-31 20:19 UTC. Time now 2015-Aug-03 10:40 UTC.
Position N 46°34' W 072°06'.

Length 145 m; draft 5.9 m.

Type: Tanker. MMSI: 235076245.

Date/timePositionNaut miles runAvg speedWind from/ knotsBaromVisibWave heightAir tempDewpointWater temp
2015-Jul-31 20:19N 46°34' W 072°06'1012.9
2015-Jul-31 19:33N 46°27' W 072°16'1313.1
2015-Jul-31 18:33N 46°20' W 072°32'1111.4
2015-Jul-31 17:33N 46°14' W 072°46'5412.3
2015-Jul-31 13:11N 45°30' W 073°31'1 0.9
2015-Jul-31 12:31N 45°30' W 073°31'5 5.2
2015-Jul-31 11:34N 45°25' W 073°32'3 3.1
2015-Jul-31 10:33N 45°24' W 073°36'8 8.1
2015-Jul-31 09:33N 45°24' W 073°48'7 7.2
2015-Jul-31 08:33N 45°19' W 073°55'1 1.2
2015-Jul-31 07:33N 45°18' W 073°56'7 6.2
2015-Jul-31 06:28N 45°13' W 074°03'117 9.5
2015-Jul-30 18:10N 44°08' W 076°20'0 0.1
2015-Jul-30 17:33N 44°08' W 076°20'9 8.9
2015-Jul-30 16:30N 44°01' W 076°28'10312.5
2015-Jul-30 08:16N 43°25' W 078°42'913.2
2015-Jul-30 07:33N 43°22' W 078°54'1313.0
2015-Jul-30 06:33N 43°20' W 079°12'1312.9
2015-Jul-30 05:33N 43°19' W 079°29'1311.6
2015-Jul-30 04:25N 43°18' W 079°47'12 0.3
2015-Jul-28 18:25N 43°24' W 079°34'1011.6
2015-Jul-28 17:33N 43°26' W 079°20'1211.7
2015-Jul-28 16:33N 43°27' W 079°04'12612.6
2015-Jul-28 06:32N 44°10' W 076°19'0 0.0
2015-Jul-28 05:33N 44°10' W 076°19'121 6.3
2015-Jul-27 10:25N 45°16' W 073°57'2 2.4
2015-Jul-27 09:33N 45°18' W 073°56'1 0.8
2015-Jul-27 08:33N 45°19' W 073°55'3 3.1
2015-Jul-27 07:33N 45°21' W 073°52'8 7.7
2015-Jul-27 06:33N 45°25' W 073°42'6 5.7
2015-Jul-27 05:33N 45°24' W 073°34'2 1.9
2015-Jul-27 04:33N 45°25' W 073°31'47 2.7
2015-Jul-26 11:16N 46°06' W 072°59'7 9.2
2015-Jul-26 10:30N 46°12' W 072°53'910.0
2015-Jul-26 09:33N 46°16' W 072°41'7 7.3
2015-Jul-26 08:33N 46°20' W 072°32'9 8.7
2015-Jul-26 07:33N 46°25' W 072°22'8 8.3
2015-Jul-26 06:32N 46°31' W 072°13'  

Dump ship's entire track history